Weather History for Glencoe, MN

Change the Weather History Date:

Wednesday, October 3, 2012

  Actual Average (KHCD) Record (KHCD)
Temperature  
Mean Temperature 59 °F -  
Max Temperature 77 °F 66 °F 89 °F (1997)
Min Temperature 41 °F 42 °F 21 °F (1996)
Degree Days  
Heating Degree Days 6    
Growing Degree Days 9 (Base 50)    
Moisture  
Dew Point 36 °F    
Average Humidity 46    
Maximum Humidity 72    
Minimum Humidity 18    
Precipitation  
Precipitation 0.00 in - - ()
Sea Level Pressure  
Sea Level Pressure 29.86 in    
Wind  
Wind Speed 3 mph (SE)    
Max Wind Speed 14 mph    
Max Gust Speed 24 mph    
Visibility 10 miles    
Events      
Averages and records for this station are not official NWS values.
T = Trace of Precipitation, MM = Missing Value Source: NWS Daily Summary

Daily Weather History Graph

Daily Weather History Graph

Search for Another Location

Airport:

Trip Planner

Search our weather history database for the weather conditions in past years. The results will help you decide how hot, cold, wet, or windy it might be!

Date:

Astronomy

Oct. 03, 2012 Rise Set
Actual Time 7:17 AM CDT 6:52 PM CDT
Civil Twilight 6:48 AM CDT 7:21 PM CDT
Nautical Twilight 6:14 AM CDT 7:55 PM CDT
Astronomical Twilight 5:40 AM CDT 8:29 PM CDT
Moon 8:34 PM CDT (10/3) 10:51 AM CDT (10/3)
Length of Visible Light 12h 33m
Length of Day
11h 34m
Waning Gibbous, 88% of the Moon is Illuminated
Oct 3
Waning Gibbous
Oct 8
Last Quarter
Oct 15
New
Oct 21
First Quarter
Oct 29
Full

Hourly Weather History & Observations

Time (CDT) Temp. Windchill Dew Point Humidity Pressure Visibility Wind Dir Wind Speed Gust Speed Precip Events Conditions
12:16 AM 49.1 °F - 35.6 °F 60% 29.86 in 10.0 mi Calm Calm - N/A   Clear
12:35 AM 49.1 °F - 35.6 °F 60% 29.87 in 10.0 mi Calm Calm - N/A   Clear
12:56 AM 46.8 °F - 35.2 °F 64% 29.87 in 10.0 mi Calm Calm - N/A   Clear
1:15 AM 47.3 °F - 34.9 °F 62% 29.87 in 10.0 mi Calm Calm - N/A   Clear
1:35 AM 48.7 °F - 35.1 °F 59% 29.87 in 10.0 mi Calm Calm - N/A   Clear
1:55 AM 47.1 °F - 35.1 °F 63% 29.87 in 10.0 mi Calm Calm - N/A   Clear
2:15 AM 47.3 °F - 35.1 °F 62% 29.88 in 10.0 mi Calm Calm - N/A   Clear
2:35 AM 46.8 °F - 34.7 °F 63% 29.87 in 10.0 mi Calm Calm - N/A   Clear
2:55 AM 45.5 °F - 34.7 °F 66% 29.88 in 10.0 mi Calm Calm - N/A   Clear
3:15 AM 45.5 °F - 34.7 °F 66% 29.87 in 10.0 mi Calm Calm - N/A   Clear
3:35 AM 46.6 °F - 34.7 °F 63% 29.87 in 10.0 mi SSE 3.5 mph - N/A   Clear
3:55 AM 46.6 °F - 34.7 °F 63% 29.87 in 10.0 mi SE 3.5 mph - N/A   Clear
4:15 AM 46.4 °F 45.2 °F 34.7 °F 64% 29.87 in 10.0 mi ESE 3.5 mph - N/A   Clear
4:35 AM 45.9 °F 43.6 °F 34.5 °F 65% 29.88 in 10.0 mi SE 4.6 mph - N/A   Clear
4:55 AM 46.6 °F - 34.7 °F 63% 29.88 in 10.0 mi Calm Calm - N/A   Clear
5:15 AM 41.9 °F - 33.4 °F 72% 29.88 in 10.0 mi Calm Calm - N/A   Clear
5:35 AM 42.4 °F - 34.0 °F 72% 29.89 in 10.0 mi Calm Calm - N/A   Clear
5:55 AM 42.8 °F 41.1 °F 34.2 °F 72% 29.89 in 10.0 mi SE 3.5 mph - N/A   Clear
6:15 AM 43.9 °F 42.3 °F 34.9 °F 71% 29.89 in 10.0 mi SE 3.5 mph - N/A   Clear
6:35 AM 43.9 °F 42.3 °F 35.1 °F 71% 29.89 in 10.0 mi SSE 3.5 mph - N/A   Clear
6:55 AM 44.8 °F - 35.6 °F 70% 29.89 in 10.0 mi Calm Calm - N/A   Clear
7:15 AM 43.5 °F - 35.1 °F 72% 29.90 in 10.0 mi Calm Calm - N/A   Clear
7:35 AM 44.6 °F - 35.6 °F 71% 29.90 in 10.0 mi Calm Calm - N/A   Clear
7:55 AM 45.3 °F - 36.1 °F 70% 29.90 in 10.0 mi Calm Calm - N/A   Clear
8:15 AM 47.5 °F - 37.2 °F 68% 29.90 in 10.0 mi Calm Calm - N/A   Clear
8:35 AM 50.2 °F - 37.6 °F 62% 29.90 in 10.0 mi South 3.5 mph - N/A   Clear
8:55 AM 51.8 °F - 38.8 °F 61% 29.90 in 10.0 mi SSW 3.5 mph - N/A   Clear
9:15 AM 54.3 °F - 38.7 °F 55% 29.90 in 10.0 mi South 4.6 mph - N/A   Clear
9:35 AM 57.2 °F - 38.7 °F 50% 29.90 in 10.0 mi South 5.8 mph - N/A   Clear
9:55 AM 59.9 °F - 37.6 °F 44% 29.90 in 10.0 mi SSE 3.5 mph - N/A   Clear
10:15 AM 61.9 °F - 37.2 °F 40% 29.89 in 10.0 mi SSE 5.8 mph - N/A   Clear
10:35 AM 64.4 °F - 36.3 °F 35% 29.90 in 10.0 mi South 6.9 mph - N/A   Clear
10:55 AM 66.4 °F - 35.4 °F 32% 29.90 in 10.0 mi SSE 5.8 mph - N/A   Clear
11:15 AM 67.8 °F - 35.1 °F 30% 29.90 in 10.0 mi South 6.9 mph - N/A   Clear
11:35 AM 70.2 °F - 32.9 °F 25% 29.89 in 10.0 mi SSE 5.8 mph - N/A   Clear
11:56 AM 72.1 °F - 32.4 °F 23% 29.88 in 10.0 mi South 6.9 mph - N/A   Clear
12:15 PM 72.7 °F - 32.2 °F 23% 29.88 in 10.0 mi SSE 4.6 mph - N/A   Clear
12:56 PM 74.7 °F - 31.8 °F 21% 29.86 in 10.0 mi SSE 10.4 mph - N/A   Clear
1:15 PM 74.3 °F - 31.6 °F 21% 29.85 in 10.0 mi SE 9.2 mph - N/A   Clear
1:35 PM 75.4 °F - 30.7 °F 19% 29.84 in 10.0 mi SSE 8.1 mph - N/A   Clear
1:55 PM 75.6 °F - 31.3 °F 20% 29.83 in 10.0 mi SSE 9.2 mph 17.3 mph N/A   Clear
2:15 PM 76.3 °F - 30.9 °F 19% 29.83 in 10.0 mi SE 10.4 mph - N/A   Clear
2:35 PM 76.5 °F - 30.7 °F 19% 29.82 in 10.0 mi SE 13.8 mph 18.4 mph N/A   Clear
2:55 PM 76.6 °F - 29.8 °F 18% 29.82 in 10.0 mi SE 10.4 mph 16.1 mph N/A   Clear
3:15 PM 77.0 °F - 30.4 °F 18% 29.81 in 10.0 mi SSE 10.4 mph 18.4 mph N/A   Clear
3:35 PM 76.6 °F - 32.0 °F 20% 29.81 in 10.0 mi SSE 10.4 mph 24.2 mph N/A   Clear
3:55 PM 77.2 °F - 33.6 °F 21% 29.81 in 10.0 mi SSE 8.1 mph 18.4 mph N/A   Clear
4:15 PM 77.2 °F - 36.0 °F 22% 29.80 in 10.0 mi SSE 10.4 mph 16.1 mph N/A   Clear
4:35 PM 77.2 °F - 37.0 °F 23% 29.80 in 10.0 mi SE 9.2 mph - N/A   Clear
4:55 PM 77.0 °F - 37.2 °F 24% 29.81 in 10.0 mi SE 13.8 mph - N/A   Clear
5:15 PM 76.6 °F - 38.3 °F 25% 29.81 in 10.0 mi SSE 9.2 mph - N/A   Clear
5:55 PM 74.8 °F - 38.1 °F 26% 29.82 in 10.0 mi SSE 5.8 mph - N/A   Clear
6:15 PM 73.0 °F - 38.3 °F 28% 29.82 in 10.0 mi SE 6.9 mph - N/A   Clear
6:35 PM 70.7 °F - 38.7 °F 31% 29.82 in 10.0 mi SE 4.6 mph - N/A   Clear
6:55 PM 67.8 °F - 39.2 °F 35% 29.82 in 10.0 mi ESE 5.8 mph - N/A   Clear
7:15 PM 65.7 °F - 39.6 °F 38% 29.82 in 10.0 mi ESE 6.9 mph - N/A   Clear
7:35 PM 65.3 °F - 40.1 °F 40% 29.83 in 10.0 mi SE 5.8 mph - N/A   Clear
8:15 PM 64.6 °F - 40.5 °F 41% 29.83 in 10.0 mi ESE 5.8 mph - N/A   Clear
8:35 PM 62.8 °F - 40.5 °F 44% 29.83 in 10.0 mi ESE 6.9 mph - N/A   Clear
8:55 PM 61.3 °F - 40.5 °F 46% 29.83 in 10.0 mi ESE 8.1 mph - N/A   Clear
9:35 PM 60.1 °F - 40.6 °F 49% 29.83 in 10.0 mi ESE 8.1 mph - N/A   Clear
9:55 PM 58.8 °F - 41.0 °F 52% 29.83 in 10.0 mi ESE 6.9 mph - N/A   Clear
10:15 PM 57.6 °F - 41.0 °F 54% 29.83 in 10.0 mi ESE 8.1 mph - N/A   Clear
10:35 PM 57.6 °F - 41.0 °F 54% 29.83 in 10.0 mi ESE 8.1 mph - N/A   Clear
10:55 PM 59.9 °F - 41.0 °F 50% 29.82 in 10.0 mi SE 8.1 mph - N/A   Clear
11:16 PM 60.8 °F - 41.0 °F 48% 29.81 in 10.0 mi ESE 9.2 mph - N/A   Clear
11:35 PM 61.7 °F - 40.6 °F 46% 29.81 in 10.0 mi SE 8.1 mph - N/A   Clear
11:55 PM 61.7 °F - 40.5 °F 46% 29.80 in 10.0 mi SE 8.1 mph - N/A   Clear